Airfield :
LOGIN :

Register | Disclaimer

   EN    FR    IT 

 










Legend :    VFR   Marginal VFR   IFR   Intensive IFR   Very Intensive IFR
Visi :
Ceiling :
>= 8 km
>= 3000ft
5 to 8 km
1000 to 3000 ft
1500m to 5 km
500 to 1000 ft
800 to 1500m
200 to 500 ft
< 800m
< 200 ft
Symbols :   Thunderstorms  Fog  Heavy snow  Heavy precipitations  Wind > 20 kt
SIGMETs :     Misc.  Thunderstorms  Icing  Turbulence  Mountain Waves  Volcanic Ashes






- Airport Elevation : 202 ft
- IATA code : LGW


EGKK - London Gatwick

CURRENT METAR :
  • 130450Z 27016KT 9999 FEW023 BKN030 07/04 Q0973

EXPIRED METARs :
  • 130420Z 27019KT 8000 SCT019 BKN025 07/04 Q0973
  • 130350Z 27017KT 9999 SCT017 BKN024 07/05 Q0973
  • 130320Z 27017KT 9999 FEW014 BKN018 07/05 Q0972
  • 130250Z 27015KT 9999 FEW014 BKN025 07/05 Q0972
  • 130220Z 28014KT 9999 -RA SCT014 BKN024 07/06 Q0971

TAF TAF EGKK
Valid from the 13 at 00:00 until the 14 at 06:00 UTC


122300Z 1300/1406 22010KT 9999 SCT030
TEMPO 1300/1305 7000 RA BKN012
PROB40
TEMPO 1300/1303 24015G25KT 4000 +RA BKN008
BECMG 1303/1305 27015G25KT
BECMG 1316/1319 25010KT



MET'MAP, your aeronautical weather chart ! - Copyright ORBIFLY December 2007 - Disclaimer

ORBIFLY MET'MAP TEAM :

Programming & Development : Alexandra Zaïnal
Concept & original design : Baudouin d'Aumeries
Assistance for programming : Marc-Olivier Méhu
Technical & hardware support : Manuel Goepfert

Contact : metmap@orbifly.com




SOURCES & CREDITS :

   NOAA